Departure
Tefé Airport
Tefé, BR
cloud Weather
- Wind
- 70° / 7 kt
- Visibility
- 6 SM
- Ceiling
- FEW 1,700 ft
- Temp / Dew
- 33°C / 25°C
- Altimeter
- 29.91 inHg
Obs: 2026-09-01T14:00:00.000Z
Raw METAR
METAR SBTF 011400Z 07007KT 9999 FEW017 33/25 Q1013
local_airport Airport
TFF · SBTF · Tefé, BR
Departure
Tefé, BR
Obs: 2026-09-01T14:00:00.000Z
METAR SBTF 011400Z 07007KT 9999 FEW017 33/25 Q1013
| Date | Flight | Aircraft | Route | Takeoff | Landing | Duration | Arr Δ |
|---|---|---|---|---|---|---|---|
| 2026-07-25 | AZU4183 | E493E5 | MAO → TFF | Jul 25, 15:30 UTC | Jul 25, 15:50 UTC | 20m | - |
| 2026-07-25 | AZU4183 | E493E5 | MAO → TFF | Jul 25, 14:25 UTC | Jul 25, 14:55 UTC | 30m | - |
| 2026-07-23 | AZU4183 | E48EF2 | MAO → TFF | Jul 23, 15:25 UTC | Jul 23, 15:50 UTC | 25m | - |
| 2026-07-23 | AZU4183 | E48EF2 | MAO → TFF | Jul 23, 14:25 UTC | Jul 23, 14:45 UTC | 20m | - |
| 2026-07-21 | AZU4183 | E4917D | MAO → TFF | Jul 21, 15:15 UTC | Jul 21, 15:40 UTC | 25m | - |
| 2026-07-21 | AZU4183 | E4917D | MAO → TFF | Jul 21, 14:25 UTC | Jul 21, 14:40 UTC | 15m | - |
| 2026-07-18 | AZU4183 | E49B81 | MAO → TFF | Jul 18, 16:05 UTC | Jul 18, 16:25 UTC | 20m | - |
| 2026-07-18 | AZU4183 | E49B81 | MAO → TFF | Jul 18, 15:15 UTC | Jul 18, 15:35 UTC | 20m | - |
| 2026-07-02 | AZU4183 | E49B81 | MAO → TFF | Jul 2, 15:20 UTC | Jul 2, 15:45 UTC | 25m | - |
| 2026-07-02 | AZU4183 | E49B81 | MAO → TFF | Jul 2, 14:25 UTC | Jul 2, 14:45 UTC | 20m | - |
| 2026-06-25 | AZU4183 | E4A211 | MAO → TFF | Jun 25, 15:29 UTC | Jun 25, 15:50 UTC | 20m | - |
| 2026-06-25 | AZU4183 | E4A211 | MAO → TFF | Jun 25, 14:24 UTC | Jun 25, 14:50 UTC | 25m | - |
| 2026-06-23 | AZU4183 | E4A211 | MAO → TFF | Jun 23, 15:34 UTC | Jun 23, 16:09 UTC | 35m | - |
| 2026-06-23 | AZU4183 | E4A211 | MAO → TFF | Jun 23, 14:35 UTC | Jun 23, 14:55 UTC | 20m | - |
| 2026-06-20 | AZU4183 | E48EF2 | MAO → TFF | Jun 20, 15:14 UTC | Jun 20, 15:39 UTC | 25m | - |
| 2026-06-20 | AZU4183 | E48EF2 | MAO → TFF | Jun 20, 14:05 UTC | Jun 20, 14:24 UTC | 20m | - |
| 2026-06-18 | AZU4183 | E49B81 | MAO → TFF | Jun 18, 15:15 UTC | Jun 18, 15:35 UTC | 20m | - |
| 2026-06-18 | AZU4183 | E49B81 | MAO → TFF | Jun 18, 14:15 UTC | Jun 18, 14:40 UTC | 25m | - |
| 2026-06-16 | AZU4183 | E4A211 | MAO → TFF | Jun 16, 15:05 UTC | Jun 16, 15:30 UTC | 25m | - |
| 2026-06-16 | AZU4183 | E4A211 | MAO → TFF | Jun 16, 14:09 UTC | Jun 16, 14:25 UTC | 15m | - |
| 2026-06-13 | AZU4183 | E48E36 | MAO → TFF | Jun 13, 15:05 UTC | Jun 13, 15:30 UTC | 25m | - |
| 2026-06-13 | AZU4183 | E48E36 | MAO → TFF | Jun 13, 14:15 UTC | Jun 13, 14:35 UTC | 20m | - |
| 2026-06-11 | AZU4183 | E48E36 | MAO → TFF | Jun 11, 15:30 UTC | Jun 11, 15:55 UTC | 25m | - |
| 2026-06-11 | AZU4183 | E48E36 | MAO → TFF | Jun 11, 14:30 UTC | Jun 11, 14:55 UTC | 25m | - |
| 2026-06-09 | AZU4183 | E48E36 | MAO → TFF | Jun 9, 15:40 UTC | Jun 9, 15:50 UTC | 10m | - |